sensor_id;sensor_type;location;lat;lon;timestamp;pressure;altitude;pressure_sealevel;temperature;humidity
49030;BME280;43337;52.070;4.508;2023-04-08T00:02:24;102455.47;;;8.37;100.00
49030;BME280;43337;52.070;4.508;2023-04-08T00:04:49;102462.50;;;8.39;100.00
49030;BME280;43337;52.070;4.508;2023-04-08T00:07:15;102452.00;;;8.35;100.00
49030;BME280;43337;52.070;4.508;2023-04-08T00:09:40;102455.50;;;8.32;100.00
49030;BME280;43337;52.070;4.508;2023-04-08T00:12:05;102461.63;;;8.39;100.00
49030;BME280;43337;52.070;4.508;2023-04-08T00:14:31;102458.09;;;8.33;100.00
49030;BME280;43337;52.070;4.508;2023-04-08T00:16:56;102462.47;;;8.36;100.00
49030;BME280;43337;52.070;4.508;2023-04-08T00:19:22;102438.09;;;8.20;100.00
49030;BME280;43337;52.070;4.508;2023-04-08T00:21:48;102457.28;;;8.31;100.00
49030;BME280;43337;52.070;4.508;2023-04-08T00:24:14;102448.53;;;8.28;100.00
49030;BME280;43337;52.070;4.508;2023-04-08T00:26:40;102464.25;;;8.32;100.00
49030;BME280;43337;52.070;4.508;2023-04-08T00:29:06;102461.63;;;8.32;100.00
49030;BME280;43337;52.070;4.508;2023-04-08T00:31:31;102456.41;;;8.28;100.00
49030;BME280;43337;52.070;4.508;2023-04-08T00:33:56;102444.19;;;8.24;100.00
49030;BME280;43337;52.070;4.508;2023-04-08T00:36:22;102462.50;;;8.33;100.00
49030;BME280;43337;52.070;4.508;2023-04-08T00:38:47;102461.63;;;8.29;100.00
49030;BME280;43337;52.070;4.508;2023-04-08T00:41:13;102469.50;;;8.34;100.00
49030;BME280;43337;52.070;4.508;2023-04-08T00:43:38;102452.06;;;8.25;100.00
49030;BME280;43337;52.070;4.508;2023-04-08T00:46:03;102459.88;;;8.31;100.00
49030;BME280;43337;52.070;4.508;2023-04-08T00:48:29;102464.28;;;8.28;100.00
49030;BME280;43337;52.070;4.508;2023-04-08T00:50:55;102463.38;;;8.32;100.00
49030;BME280;43337;52.070;4.508;2023-04-08T00:53:21;102462.50;;;8.30;100.00
49030;BME280;43337;52.070;4.508;2023-04-08T00:55:46;102476.53;;;8.30;100.00
49030;BME280;43337;52.070;4.508;2023-04-08T00:58:12;102474.75;;;8.32;100.00
49030;BME280;43337;52.070;4.508;2023-04-08T01:00:44;102463.41;;;8.29;100.00
49030;BME280;43337;52.070;4.508;2023-04-08T01:03:16;102473.91;;;8.29;100.00
49030;BME280;43337;52.070;4.508;2023-04-08T01:08:42;102475.63;;;8.30;100.00
49030;BME280;43337;52.070;4.508;2023-04-08T01:11:10;102476.50;;;8.32;100.00
49030;BME280;43337;52.070;4.508;2023-04-08T01:13:39;102466.91;;;8.31;100.00
49030;BME280;43337;52.070;4.508;2023-04-08T01:16:08;102484.38;;;8.32;100.00
49030;BME280;43337;52.070;4.508;2023-04-08T01:18:35;102482.63;;;8.29;100.00
49030;BME280;43337;52.070;4.508;2023-04-08T01:21:02;102476.56;;;8.24;100.00
49030;BME280;43337;52.070;4.508;2023-04-08T01:23:39;102484.38;;;8.29;100.00
49030;BME280;43337;52.070;4.508;2023-04-08T01:26:10;102468.66;;;8.27;100.00
49030;BME280;43337;52.070;4.508;2023-04-08T01:28:38;102470.44;;;8.24;100.00
49030;BME280;43337;52.070;4.508;2023-04-08T01:31:04;102475.66;;;8.28;100.00
49030;BME280;43337;52.070;4.508;2023-04-08T01:33:30;102445.16;;;8.12;100.00
49030;BME280;43337;52.070;4.508;2023-04-08T01:35:56;102468.69;;;8.21;100.00
49030;BME280;43337;52.070;4.508;2023-04-08T01:38:24;102480.03;;;8.25;100.00
49030;BME280;43337;52.070;4.508;2023-04-08T01:40:52;102482.69;;;8.26;100.00
49030;BME280;43337;52.070;4.508;2023-04-08T01:43:18;102473.94;;;8.21;100.00
49030;BME280;43337;52.070;4.508;2023-04-08T01:46:21;102484.44;;;8.21;100.00
49030;BME280;43337;52.070;4.508;2023-04-08T01:48:47;102477.44;;;8.22;100.00
49030;BME280;43337;52.070;4.508;2023-04-08T01:51:15;102476.63;;;8.15;100.00
49030;BME280;43337;52.070;4.508;2023-04-08T01:53:41;102467.88;;;8.16;100.00
49030;BME280;43337;52.070;4.508;2023-04-08T01:56:11;102473.97;;;8.17;100.00
49030;BME280;43337;52.070;4.508;2023-04-08T01:58:45;102490.56;;;8.20;100.00
49030;BME280;43337;52.070;4.508;2023-04-08T02:01:16;102480.97;;;8.16;100.00
49030;BME280;43337;52.070;4.508;2023-04-08T02:03:43;102486.22;;;8.18;100.00
49030;BME280;43337;52.070;4.508;2023-04-08T02:06:09;102445.25;;;7.97;100.00
49030;BME280;43337;52.070;4.508;2023-04-08T02:08:36;102492.34;;;8.17;100.00
49030;BME280;43337;52.070;4.508;2023-04-08T02:11:02;102481.81;;;8.18;100.00
49030;BME280;43337;52.070;4.508;2023-04-08T02:13:29;102485.34;;;8.17;100.00
49030;BME280;43337;52.070;4.508;2023-04-08T02:19:11;102487.97;;;8.17;100.00
49030;BME280;43337;52.070;4.508;2023-04-08T02:21:52;102486.22;;;8.15;100.00
49030;BME280;43337;52.070;4.508;2023-04-08T02:24:20;102487.13;;;8.15;100.00
49030;BME280;43337;52.070;4.508;2023-04-08T02:26:48;102490.59;;;8.14;100.00
49030;BME280;43337;52.070;4.508;2023-04-08T02:29:17;102479.25;;;8.11;100.00
49030;BME280;43337;52.070;4.508;2023-04-08T02:31:44;102483.63;;;8.12;100.00
49030;BME280;43337;52.070;4.508;2023-04-08T02:34:12;102488.00;;;8.10;100.00
49030;BME280;43337;52.070;4.508;2023-04-08T02:36:38;102493.25;;;8.11;100.00
49030;BME280;43337;52.070;4.508;2023-04-08T02:39:05;102492.38;;;8.09;100.00
49030;BME280;43337;52.070;4.508;2023-04-08T02:41:30;102497.63;;;8.09;100.00
49030;BME280;43337;52.070;4.508;2023-04-08T02:43:56;102486.25;;;8.07;100.00
49030;BME280;43337;52.070;4.508;2023-04-08T02:46:22;102484.56;;;8.01;100.00
49030;BME280;43337;52.070;4.508;2023-04-08T02:48:47;102502.88;;;8.06;100.00
49030;BME280;43337;52.070;4.508;2023-04-08T02:51:13;102486.31;;;8.01;100.00
49030;BME280;43337;52.070;4.508;2023-04-08T02:53:38;102482.84;;;7.96;100.00
49030;BME280;43337;52.070;4.508;2023-04-08T02:56:04;102491.56;;;8.01;100.00
49030;BME280;43337;52.070;4.508;2023-04-08T03:01:48;102510.75;;;8.06;100.00
49030;BME280;43337;52.070;4.508;2023-04-08T03:04:13;102505.53;;;8.04;100.00
49030;BME280;43337;52.070;4.508;2023-04-08T03:06:38;102506.41;;;8.03;100.00
49030;BME280;43337;52.070;4.508;2023-04-08T03:09:04;102500.31;;;7.97;100.00
49030;BME280;43337;52.070;4.508;2023-04-08T03:11:32;102504.66;;;8.01;100.00
49030;BME280;43337;52.070;4.508;2023-04-08T03:13:58;102511.69;;;7.96;100.00
49030;BME280;43337;52.070;4.508;2023-04-08T03:16:24;102507.34;;;7.93;100.00
49030;BME280;43337;52.070;4.508;2023-04-08T03:18:49;102481.19;;;7.78;100.00
49030;BME280;43337;52.070;4.508;2023-04-08T03:21:18;102517.81;;;7.92;100.00
49030;BME280;43337;52.070;4.508;2023-04-08T03:23:44;102508.25;;;7.83;100.00
49030;BME280;43337;52.070;4.508;2023-04-08T03:26:40;102514.34;;;7.83;100.00
49030;BME280;43337;52.070;4.508;2023-04-08T03:29:42;102517.88;;;7.79;100.00
49030;BME280;43337;52.070;4.508;2023-04-08T03:32:10;102521.41;;;7.77;100.00
49030;BME280;43337;52.070;4.508;2023-04-08T03:34:35;102507.41;;;7.72;100.00
49030;BME280;43337;52.070;4.508;2023-04-08T03:37:00;102526.63;;;7.78;100.00
49030;BME280;43337;52.070;4.508;2023-04-08T03:39:26;102517.03;;;7.74;100.00
49030;BME280;43337;52.070;4.508;2023-04-08T03:41:51;102523.13;;;7.78;100.00
49030;BME280;43337;52.070;4.508;2023-04-08T03:44:16;102519.63;;;7.76;100.00
49030;BME280;43337;52.070;4.508;2023-04-08T03:46:42;102524.00;;;7.77;100.00
49030;BME280;43337;52.070;4.508;2023-04-08T03:49:07;102531.88;;;7.78;100.00
49030;BME280;43337;52.070;4.508;2023-04-08T03:51:33;102523.13;;;7.78;100.00
49030;BME280;43337;52.070;4.508;2023-04-08T03:53:58;102505.72;;;7.62;100.00
49030;BME280;43337;52.070;4.508;2023-04-08T03:56:23;102530.09;;;7.79;100.00
49030;BME280;43337;52.070;4.508;2023-04-08T03:58:49;102527.50;;;7.76;100.00
49030;BME280;43337;52.070;4.508;2023-04-08T04:01:15;102517.03;;;7.68;100.00
49030;BME280;43337;52.070;4.508;2023-04-08T04:03:40;102540.59;;;7.76;100.00
49030;BME280;43337;52.070;4.508;2023-04-08T04:06:06;102544.13;;;7.72;100.00
49030;BME280;43337;52.070;4.508;2023-04-08T04:08:31;102540.63;;;7.71;100.00
49030;BME280;43337;52.070;4.508;2023-04-08T04:10:58;102538.88;;;7.72;100.00
49030;BME280;43337;52.070;4.508;2023-04-08T04:13:24;102548.50;;;7.71;100.00
49030;BME280;43337;52.070;4.508;2023-04-08T04:15:50;102547.59;;;7.72;100.00
49030;BME280;43337;52.070;4.508;2023-04-08T04:18:16;102547.63;;;7.71;100.00
49030;BME280;43337;52.070;4.508;2023-04-08T04:20:41;102549.41;;;7.66;100.00
49030;BME280;43337;52.070;4.508;2023-04-08T04:23:07;102549.38;;;7.64;100.00
49030;BME280;43337;52.070;4.508;2023-04-08T04:25:33;102558.16;;;7.62;100.00
49030;BME280;43337;52.070;4.508;2023-04-08T04:27:58;102566.84;;;7.64;100.00
49030;BME280;43337;52.070;4.508;2023-04-08T04:30:24;102564.25;;;7.56;100.00
49030;BME280;43337;52.070;4.508;2023-04-08T04:32:50;102561.66;;;7.54;100.00
49030;BME280;43337;52.070;4.508;2023-04-08T04:35:15;102564.28;;;7.50;100.00
49030;BME280;43337;52.070;4.508;2023-04-08T04:37:41;102564.28;;;7.47;100.00
49030;BME280;43337;52.070;4.508;2023-04-08T04:40:06;102566.03;;;7.48;100.00
49030;BME280;43337;52.070;4.508;2023-04-08T04:42:33;102570.41;;;7.43;100.00
49030;BME280;43337;52.070;4.508;2023-04-08T04:44:59;102559.06;;;7.33;100.00
49030;BME280;43337;52.070;4.508;2023-04-08T04:47:24;102580.03;;;7.42;100.00
49030;BME280;43337;52.070;4.508;2023-04-08T04:49:50;102570.41;;;7.37;100.00
49030;BME280;43337;52.070;4.508;2023-04-08T04:52:15;102591.38;;;7.40;100.00
49030;BME280;43337;52.070;4.508;2023-04-08T04:54:41;102594.84;;;7.37;100.00
49030;BME280;43337;52.070;4.508;2023-04-08T04:57:06;102574.78;;;7.28;100.00
49030;BME280;43337;52.070;4.508;2023-04-08T04:59:32;102598.34;;;7.33;100.00
49030;BME280;43337;52.070;4.508;2023-04-08T05:01:57;102587.00;;;7.26;100.00
49030;BME280;43337;52.070;4.508;2023-04-08T05:04:23;102605.34;;;7.28;100.00
49030;BME280;43337;52.070;4.508;2023-04-08T05:06:49;102597.50;;;7.23;100.00
49030;BME280;43337;52.070;4.508;2023-04-08T05:09:14;102589.63;;;7.25;100.00
49030;BME280;43337;52.070;4.508;2023-04-08T05:11:40;102600.13;;;7.23;100.00
49030;BME280;43337;52.070;4.508;2023-04-08T05:14:05;102594.00;;;7.21;100.00
49030;BME280;43337;52.070;4.508;2023-04-08T05:16:31;102601.84;;;7.24;100.00
49030;BME280;43337;52.070;4.508;2023-04-08T05:18:57;102600.97;;;7.25;100.00
49030;BME280;43337;52.070;4.508;2023-04-08T05:21:22;102606.22;;;7.30;100.00
49030;BME280;43337;52.070;4.508;2023-04-08T05:23:48;102595.75;;;7.28;100.00
49030;BME280;43337;52.070;4.508;2023-04-08T05:26:15;102614.09;;;7.31;100.00
49030;BME280;43337;52.070;4.508;2023-04-08T05:28:41;102614.94;;;7.33;100.00
49030;BME280;43337;52.070;4.508;2023-04-08T05:31:06;102605.34;;;7.34;100.00
49030;BME280;43337;52.070;4.508;2023-04-08T05:33:32;102608.81;;;7.30;100.00
49030;BME280;43337;52.070;4.508;2023-04-08T05:35:57;102607.97;;;7.31;100.00
49030;BME280;43337;52.070;4.508;2023-04-08T05:38:22;102613.19;;;7.26;100.00
49030;BME280;43337;52.070;4.508;2023-04-08T05:40:48;102594.88;;;7.23;100.00
49030;BME280;43337;52.070;4.508;2023-04-08T05:43:13;102590.50;;;7.13;100.00
49030;BME280;43337;52.070;4.508;2023-04-08T05:45:39;102630.66;;;7.33;100.00
49030;BME280;43337;52.070;4.508;2023-04-08T05:48:04;102595.75;;;7.12;100.00
49030;BME280;43337;52.070;4.508;2023-04-08T05:50:29;102624.56;;;7.31;100.00
49030;BME280;43337;52.070;4.508;2023-04-08T05:52:55;102616.72;;;7.24;100.00
49030;BME280;43337;52.070;4.508;2023-04-08T05:55:20;102634.19;;;7.39;100.00
49030;BME280;43337;52.070;4.508;2023-04-08T05:57:46;102643.78;;;7.40;100.00
49030;BME280;43337;52.070;4.508;2023-04-08T06:00:11;102645.53;;;7.44;100.00
49030;BME280;43337;52.070;4.508;2023-04-08T06:02:37;102642.91;;;7.44;100.00
49030;BME280;43337;52.070;4.508;2023-04-08T06:05:03;102650.75;;;7.47;100.00
49030;BME280;43337;52.070;4.508;2023-04-08T06:07:29;102648.16;;;7.47;100.00
49030;BME280;43337;52.070;4.508;2023-04-08T06:09:55;102656.88;;;7.52;100.00
49030;BME280;43337;52.070;4.508;2023-04-08T06:12:20;102645.50;;;7.51;100.00
49030;BME280;43337;52.070;4.508;2023-04-08T06:14:47;102648.13;;;7.53;100.00
49030;BME280;43337;52.070;4.508;2023-04-08T06:17:12;102654.25;;;7.61;100.00
49030;BME280;43337;52.070;4.508;2023-04-08T06:19:38;102640.28;;;7.48;100.00
49030;BME280;43337;52.070;4.508;2023-04-08T06:22:03;102648.13;;;7.62;100.00
49030;BME280;43337;52.070;4.508;2023-04-08T06:24:28;102664.72;;;7.72;100.00
49030;BME280;43337;52.070;4.508;2023-04-08T06:26:55;102650.75;;;7.70;100.00
49030;BME280;43337;52.070;4.508;2023-04-08T06:29:21;102652.50;;;7.77;100.00
49030;BME280;43337;52.070;4.508;2023-04-08T06:31:47;102650.75;;;7.80;100.00
49030;BME280;43337;52.070;4.508;2023-04-08T06:34:13;102654.22;;;7.82;100.00
49030;BME280;43337;52.070;4.508;2023-04-08T06:36:38;102655.09;;;7.83;100.00
49030;BME280;43337;52.070;4.508;2023-04-08T06:39:03;102685.66;;;7.90;100.00
49030;BME280;43337;52.070;4.508;2023-04-08T06:41:29;102673.44;;;7.92;100.00
49030;BME280;43337;52.070;4.508;2023-04-08T06:43:55;102677.81;;;7.93;100.00
49030;BME280;43337;52.070;4.508;2023-04-08T06:46:20;102670.81;;;7.94;100.00
49030;BME280;43337;52.070;4.508;2023-04-08T06:48:47;102665.56;;;7.94;100.00
49030;BME280;43337;52.070;4.508;2023-04-08T06:51:13;102684.78;;;8.03;100.00
49030;BME280;43337;52.070;4.508;2023-04-08T06:53:38;102686.50;;;8.06;100.00
49030;BME280;43337;52.070;4.508;2023-04-08T06:56:04;102672.53;;;7.98;100.00
49030;BME280;43337;52.070;4.508;2023-04-08T06:58:29;102683.00;;;8.10;100.00
49030;BME280;43337;52.070;4.508;2023-04-08T07:00:55;102694.34;;;8.18;100.00
49030;BME280;43337;52.070;4.508;2023-04-08T07:03:21;102679.50;;;8.17;100.00
49030;BME280;43337;52.070;4.508;2023-04-08T07:05:46;102689.97;;;8.26;100.00
49030;BME280;43337;52.070;4.508;2023-04-08T07:08:12;102701.34;;;8.27;100.00
49030;BME280;43337;52.070;4.508;2023-04-08T07:10:38;102711.78;;;8.33;100.00
49030;BME280;43337;52.070;4.508;2023-04-08T07:13:03;102710.06;;;8.32;100.00
49030;BME280;43337;52.070;4.508;2023-04-08T07:15:29;102712.66;;;8.33;100.00
49030;BME280;43337;52.070;4.508;2023-04-08T07:17:54;102712.72;;;8.38;100.00
49030;BME280;43337;52.070;4.508;2023-04-08T07:20:24;102721.44;;;8.37;100.00
49030;BME280;43337;52.070;4.508;2023-04-08T07:22:50;102713.56;;;8.31;100.00
49030;BME280;43337;52.070;4.508;2023-04-08T07:25:16;102723.19;;;8.26;100.00
49030;BME280;43337;52.070;4.508;2023-04-08T07:27:41;102718.81;;;8.25;100.00
49030;BME280;43337;52.070;4.508;2023-04-08T07:30:07;102721.44;;;8.28;100.00
49030;BME280;43337;52.070;4.508;2023-04-08T07:32:33;102729.31;;;8.25;100.00
49030;BME280;43337;52.070;4.508;2023-04-08T07:34:59;102724.97;;;8.24;100.00
49030;BME280;43337;52.070;4.508;2023-04-08T07:37:25;102741.56;;;8.27;100.00
49030;BME280;43337;52.070;4.508;2023-04-08T07:39:51;102737.16;;;8.29;100.00
49030;BME280;43337;52.070;4.508;2023-04-08T07:42:16;102742.41;;;8.29;100.00
49030;BME280;43337;52.070;4.508;2023-04-08T07:44:42;102742.41;;;8.32;100.00
49030;BME280;43337;52.070;4.508;2023-04-08T07:47:08;102729.34;;;8.26;100.00
49030;BME280;43337;52.070;4.508;2023-04-08T07:49:33;102738.94;;;8.30;100.00
49030;BME280;43337;52.070;4.508;2023-04-08T07:51:59;102741.56;;;8.35;100.00
49030;BME280;43337;52.070;4.508;2023-04-08T07:54:24;102734.53;;;8.36;100.00
49030;BME280;43337;52.070;4.508;2023-04-08T07:56:50;102741.59;;;8.38;100.00
49030;BME280;43337;52.070;4.508;2023-04-08T07:59:15;102747.69;;;8.39;100.00
49030;BME280;43337;52.070;4.508;2023-04-08T08:01:40;102726.69;;;8.32;100.00
49030;BME280;43337;52.070;4.508;2023-04-08T08:04:06;102741.59;;;8.38;100.00
49030;BME280;43337;52.070;4.508;2023-04-08T08:06:31;102717.06;;;8.25;100.00
49030;BME280;43337;52.070;4.508;2023-04-08T08:08:57;102750.28;;;8.45;100.00
49030;BME280;43337;52.070;4.508;2023-04-08T08:11:23;102753.78;;;8.50;100.00
49030;BME280;43337;52.070;4.508;2023-04-08T08:13:48;102744.16;;;8.47;100.00
49030;BME280;43337;52.070;4.508;2023-04-08T08:16:13;102745.03;;;8.48;100.00
49030;BME280;43337;52.070;4.508;2023-04-08T08:24:59;102772.13;;;8.56;100.00
49030;BME280;43337;52.070;4.508;2023-04-08T08:27:24;102766.03;;;8.54;100.00
49030;BME280;43337;52.070;4.508;2023-04-08T08:29:50;102763.38;;;8.55;100.00
49030;BME280;43337;52.070;4.508;2023-04-08T08:32:15;102764.25;;;8.56;100.00
49030;BME280;43337;52.070;4.508;2023-04-08T08:34:41;102746.78;;;8.50;100.00
49030;BME280;43337;52.070;4.508;2023-04-08T08:37:06;102757.28;;;8.58;100.00
49030;BME280;43337;52.070;4.508;2023-04-08T08:39:31;102769.47;;;8.73;100.00
49030;BME280;43337;52.070;4.508;2023-04-08T08:41:57;102769.44;;;8.77;100.00
49030;BME280;43337;52.070;4.508;2023-04-08T08:44:23;102755.47;;;8.66;100.00
49030;BME280;43337;52.070;4.508;2023-04-08T08:46:48;102782.53;;;8.88;100.00
49030;BME280;43337;52.070;4.508;2023-04-08T08:49:14;102776.41;;;8.86;100.00
49030;BME280;43337;52.070;4.508;2023-04-08T08:51:40;102781.63;;;8.95;100.00
49030;BME280;43337;52.070;4.508;2023-04-08T08:54:06;102785.97;;;9.04;100.00
49030;BME280;43337;52.070;4.508;2023-04-08T08:56:32;102765.81;;;9.06;100.00
49030;BME280;43337;52.070;4.508;2023-04-08T08:58:58;102779.72;;;9.25;100.00
49030;BME280;43337;52.070;4.508;2023-04-08T09:01:37;102781.47;;;9.31;100.00
49030;BME280;43337;52.070;4.508;2023-04-08T09:04:16;102783.16;;;9.36;100.00
49030;BME280;43337;52.070;4.508;2023-04-08T09:06:43;102769.16;;;9.36;100.00
49030;BME280;43337;52.070;4.508;2023-04-08T09:09:09;102767.38;;;9.36;100.00
49030;BME280;43337;52.070;4.508;2023-04-08T09:11:40;102776.91;;;9.57;100.00
49030;BME280;43337;52.070;4.508;2023-04-08T09:14:26;102781.19;;;9.69;100.00
49030;BME280;43337;52.070;4.508;2023-04-08T09:16:52;102775.78;;;9.86;100.00
49030;BME280;43337;52.070;4.508;2023-04-08T09:19:18;102781.84;;;9.97;100.00
49030;BME280;43337;52.070;4.508;2023-04-08T09:21:43;102781.78;;;10.01;100.00
49030;BME280;43337;52.070;4.508;2023-04-08T09:24:26;102784.31;;;10.11;100.00
49030;BME280;43337;52.070;4.508;2023-04-08T09:26:51;102772.81;;;10.24;100.00
49030;BME280;43337;52.070;4.508;2023-04-08T09:29:17;102773.59;;;10.38;100.00
49030;BME280;43337;52.070;4.508;2023-04-08T09:31:42;102772.59;;;10.50;100.00
49030;BME280;43337;52.070;4.508;2023-04-08T09:34:14;102770.63;;;10.64;100.00
49030;BME280;43337;52.070;4.508;2023-04-08T09:36:42;102766.13;;;10.75;100.00
49030;BME280;43337;52.070;4.508;2023-04-08T09:39:08;102750.31;;;10.77;100.00
49030;BME280;43337;52.070;4.508;2023-04-08T09:41:35;102775.50;;;10.99;100.00
49030;BME280;43337;52.070;4.508;2023-04-08T09:44:08;102766.59;;;11.08;100.00
49030;BME280;43337;52.070;4.508;2023-04-08T09:57:36;102777.09;;;11.70;100.00
49030;BME280;43337;52.070;4.508;2023-04-08T10:02:42;102772.44;;;11.89;100.00
49030;BME280;43337;52.070;4.508;2023-04-08T10:05:11;102766.06;;;11.99;100.00
49030;BME280;43337;52.070;4.508;2023-04-08T10:07:38;102771.22;;;12.08;100.00
49030;BME280;43337;52.070;4.508;2023-04-08T10:10:04;102764.94;;;12.15;100.00
49030;BME280;43337;52.070;4.508;2023-04-08T10:12:31;102780.50;;;12.31;100.00
49030;BME280;43337;52.070;4.508;2023-04-08T10:15:26;102771.56;;;12.36;100.00
49030;BME280;43337;52.070;4.508;2023-04-08T10:17:53;102768.69;;;12.50;100.00
49030;BME280;43337;52.070;4.508;2023-04-08T10:23:03;102766.44;;;12.72;100.00
49030;BME280;43337;52.070;4.508;2023-04-08T10:25:46;102768.13;;;12.78;100.00
49030;BME280;43337;52.070;4.508;2023-04-08T10:30:43;102768.44;;;13.03;100.00
49030;BME280;43337;52.070;4.508;2023-04-08T10:33:14;102765.81;;;13.03;100.00
49030;BME280;43337;52.070;4.508;2023-04-08T10:35:46;102765.63;;;13.10;100.00
49030;BME280;43337;52.070;4.508;2023-04-08T10:38:13;102759.28;;;13.19;100.00
49030;BME280;43337;52.070;4.508;2023-04-08T10:40:39;102755.66;;;13.25;100.00
49030;BME280;43337;52.070;4.508;2023-04-08T10:43:12;102758.13;;;13.32;100.00
49030;BME280;43337;52.070;4.508;2023-04-08T10:45:39;102753.53;;;13.40;100.00
49030;BME280;43337;52.070;4.508;2023-04-08T10:48:20;102752.38;;;13.52;100.00
49030;BME280;43337;52.070;4.508;2023-04-08T10:51:14;102758.50;;;13.54;100.00
49030;BME280;43337;52.070;4.508;2023-04-08T10:53:41;102748.53;;;13.64;100.00
49030;BME280;43337;52.070;4.508;2023-04-08T10:56:10;102756.22;;;13.76;100.00
49030;BME280;43337;52.070;4.508;2023-04-08T10:58:48;102747.28;;;13.79;100.00
49030;BME280;43337;52.070;4.508;2023-04-08T11:01:14;102749.81;;;13.85;100.00
49030;BME280;43337;52.070;4.508;2023-04-08T11:03:41;102746.97;;;13.92;100.00
49030;BME280;43337;52.070;4.508;2023-04-08T11:06:06;102729.34;;;13.91;100.00
49030;BME280;43337;52.070;4.508;2023-04-08T11:08:33;102736.09;;;14.03;100.00
49030;BME280;43337;52.070;4.508;2023-04-08T11:10:59;102740.13;;;14.16;100.00
49030;BME280;43337;52.070;4.508;2023-04-08T11:13:29;102748.53;;;14.32;100.00
49030;BME280;43337;52.070;4.508;2023-04-08T11:15:58;102754.47;;;14.40;100.00
49030;BME280;43337;52.070;4.508;2023-04-08T11:18:24;102755.47;;;14.38;100.00
49030;BME280;43337;52.070;4.508;2023-04-08T11:20:51;102751.03;;;14.38;100.00
49030;BME280;43337;52.070;4.508;2023-04-08T11:23:17;102753.41;;;14.48;100.00
49030;BME280;43337;52.070;4.508;2023-04-08T11:25:44;102721.09;;;14.35;100.00
49030;BME280;43337;52.070;4.508;2023-04-08T11:28:11;102704.31;;;14.34;100.00
49030;BME280;43337;52.070;4.508;2023-04-08T11:30:39;102726.03;;;14.47;100.00
49030;BME280;43337;52.070;4.508;2023-04-08T11:33:06;102729.44;;;14.52;100.00
49030;BME280;43337;52.070;4.508;2023-04-08T11:35:32;102742.31;;;14.66;100.00
49030;BME280;43337;52.070;4.508;2023-04-08T11:37:57;102729.13;;;14.64;100.00
49030;BME280;43337;52.070;4.508;2023-04-08T11:40:23;102745.31;;;14.85;100.00
49030;BME280;43337;52.070;4.508;2023-04-08T11:42:50;102740.88;;;14.85;100.00
49030;BME280;43337;52.070;4.508;2023-04-08T11:45:18;102738.91;;;14.92;97.50
49030;BME280;43337;52.070;4.508;2023-04-08T11:47:45;102746.94;;;14.89;95.55
49030;BME280;43337;52.070;4.508;2023-04-08T11:50:12;102749.50;;;14.92;96.45
49030;BME280;43337;52.070;4.508;2023-04-08T11:52:48;102743.44;;;14.88;83.84
49030;BME280;43337;52.070;4.508;2023-04-08T11:55:30;102752.09;;;14.94;86.05
49030;BME280;43337;52.070;4.508;2023-04-08T11:58:01;102754.72;;;14.95;85.68
49030;BME280;43337;52.070;4.508;2023-04-08T12:00:27;102750.22;;;14.97;91.68
49030;BME280;43337;52.070;4.508;2023-04-08T12:02:52;102749.22;;;15.01;92.77
49030;BME280;43337;52.070;4.508;2023-04-08T12:05:19;102763.13;;;15.09;91.19
49030;BME280;43337;52.070;4.508;2023-04-08T12:07:45;102735.97;;;15.01;88.40
49030;BME280;43337;52.070;4.508;2023-04-08T12:10:11;102738.38;;;15.09;88.36
49030;BME280;43337;52.070;4.508;2023-04-08T12:12:38;102748.66;;;15.20;85.79
49030;BME280;43337;52.070;4.508;2023-04-08T12:15:03;102736.41;;;15.16;81.94
49030;BME280;43337;52.070;4.508;2023-04-08T12:17:29;102748.22;;;15.33;84.75
49030;BME280;43337;52.070;4.508;2023-04-08T12:19:55;102743.56;;;15.40;83.59
49030;BME280;43337;52.070;4.508;2023-04-08T12:22:21;102742.56;;;15.44;81.11
49030;BME280;43337;52.070;4.508;2023-04-08T12:24:46;102739.72;;;15.50;79.48
49030;BME280;43337;52.070;4.508;2023-04-08T12:27:12;102714.47;;;15.37;76.23
49030;BME280;43337;52.070;4.508;2023-04-08T12:29:37;102704.88;;;15.33;75.80
49030;BME280;43337;52.070;4.508;2023-04-08T12:32:03;102702.03;;;15.39;75.00
49030;BME280;43337;52.070;4.508;2023-04-08T12:34:30;102727.00;;;15.60;75.45
49030;BME280;43337;52.070;4.508;2023-04-08T12:36:55;102746.81;;;15.78;75.86
49030;BME280;43337;52.070;4.508;2023-04-08T12:39:22;102730.94;;;15.76;76.07
49030;BME280;43337;52.070;4.508;2023-04-08T12:41:47;102742.84;;;15.90;76.54
49030;BME280;43337;52.070;4.508;2023-04-08T12:44:13;102748.84;;;15.96;73.37
49030;BME280;43337;52.070;4.508;2023-04-08T12:46:38;102739.78;;;16.02;70.29
49030;BME280;43337;52.070;4.508;2023-04-08T12:49:04;102731.78;;;16.02;68.53
49030;BME280;43337;52.070;4.508;2023-04-08T12:51:30;102734.25;;;16.08;72.08
49030;BME280;43337;52.070;4.508;2023-04-08T12:53:56;102734.00;;;16.14;71.29
49030;BME280;43337;52.070;4.508;2023-04-08T12:56:21;102719.28;;;16.05;66.71
49030;BME280;43337;52.070;4.508;2023-04-08T12:58:47;102732.13;;;16.18;67.32
49030;BME280;43337;52.070;4.508;2023-04-08T13:01:12;102739.88;;;16.24;67.87
49030;BME280;43337;52.070;4.508;2023-04-08T13:03:38;102723.94;;;16.24;64.24
49030;BME280;43337;52.070;4.508;2023-04-08T13:06:04;102731.84;;;16.25;64.46
49030;BME280;43337;52.070;4.508;2023-04-08T13:08:29;102744.06;;;16.31;63.57
49030;BME280;43337;52.070;4.508;2023-04-08T13:10:55;102743.91;;;16.35;60.03
49030;BME280;43337;52.070;4.508;2023-04-08T13:13:20;102726.44;;;16.28;60.94
49030;BME280;43337;52.070;4.508;2023-04-08T13:15:46;102735.00;;;16.36;61.76
49030;BME280;43337;52.070;4.508;2023-04-08T13:18:12;102737.53;;;16.40;59.99
49030;BME280;43337;52.070;4.508;2023-04-08T13:20:37;102733.94;;;16.41;58.40
49030;BME280;43337;52.070;4.508;2023-04-08T13:23:03;102714.72;;;16.34;59.51